Time;durP1;ratioP1;P1;durP2;ratioP2;P2;SDS_P1;SDS_P2;PMS_P1;PMS_P2;Temp;Humidity;BMP_temperature;BMP_pressure;BME280_temperature;BME280_humidity;BME280_pressure;Samples;Min_cycle;Max_cycle;Signal;HPM_P1;HPM_P2
2023/10/26 00:02:02;;;;;;;;;;;16.60;99.90;;;;;;5093247;28;19912;-69
2023/10/26 00:04:29;;;;;;;;;;;16.60;99.90;;;;;;5094268;28;19916;-70
2023/10/26 00:06:55;;;;;;;;;;;16.60;99.90;;;;;;5094327;28;20429;-67
2023/10/26 00:09:22;;;;;;;;;;;16.70;99.90;;;;;;5111704;28;19978;-73
2023/10/26 00:11:50;;;;;;;;;;;16.70;99.90;;;;;;5112087;28;19920;-69
2023/10/26 00:14:16;;;;;;;;;;;16.70;99.90;;;;;;5112437;28;20522;-67
2023/10/26 00:16:43;;;;;;;;;;;16.60;99.90;;;;;;5096657;28;19918;-71
2023/10/26 00:19:09;;;;;;;;;;;16.70;99.90;;;;;;5093442;28;20330;-70
2023/10/26 00:21:36;;;;;;;;;;;16.80;99.90;;;;;;5103410;28;19916;-70
2023/10/26 00:24:03;;;;;;;;;;;16.60;99.90;;;;;;5100382;28;19998;-70
2023/10/26 00:26:29;;;;;;;;;;;16.80;99.90;;;;;;5107692;28;19919;-71
2023/10/26 00:28:56;;;;;;;;;;;16.90;99.90;;;;;;5112635;28;20415;-72
2023/10/26 00:31:23;;;;;;;;;;;17.10;99.90;;;;;;5112230;28;19908;-71
2023/10/26 00:33:49;;;;;;;;;;;17.30;99.90;;;;;;5111936;28;19908;-69
2023/10/26 00:36:16;;;;;;;;;;;17.40;99.90;;;;;;5110885;28;19919;-72
2023/10/26 00:38:43;;;;;;;;;;;17.50;99.60;;;;;;5101260;28;20019;-73
2023/10/26 00:41:09;;;;;;;;;;;17.50;98.80;;;;;;5092240;28;19908;-71
2023/10/26 00:43:36;;;;;;;;;;;17.60;98.60;;;;;;5095240;28;19908;-71
2023/10/26 00:46:03;;;;;;;;;;;17.80;98.30;;;;;;5099768;28;19935;-71
2023/10/26 00:48:30;;;;;;;;;;;18.00;97.80;;;;;;5091394;28;19927;-69
2023/10/26 00:50:56;;;;;;;;;;;18.20;97.40;;;;;;5092121;28;19912;-69
2023/10/26 00:53:23;;;;;;;;;;;18.30;96.60;;;;;;5108620;28;19922;-69
2023/10/26 00:55:51;;;;;;;;;;;18.40;96.00;;;;;;5103594;28;20007;-68
2023/10/26 00:58:18;;;;;;;;;;;18.60;95.50;;;;;;5092133;28;19912;-70
2023/10/26 01:00:45;;;;;;;;;;;18.50;94.70;;;;;;5109975;28;19908;-71
2023/10/26 01:03:13;;;;;;;;;;;18.20;93.40;;;;;;5091464;28;20324;-70
2023/10/26 01:05:39;;;;;;;;;;;17.80;95.50;;;;;;5091429;28;19915;-70
2023/10/26 01:08:06;;;;;;;;;;;17.60;94.30;;;;;;5091919;28;19920;-71
2023/10/26 01:10:34;;;;;;;;;;;17.30;94.20;;;;;;5101971;28;20368;-70
2023/10/26 01:13:01;;;;;;;;;;;17.00;94.80;;;;;;5091593;28;19908;-69
2023/10/26 01:15:27;;;;;;;;;;;16.90;94.90;;;;;;5092073;28;20321;-69
2023/10/26 01:17:54;;;;;;;;;;;16.90;96.90;;;;;;5096576;28;19919;-70
2023/10/26 01:20:20;;;;;;;;;;;16.80;96.60;;;;;;5111081;28;19912;-71
2023/10/26 01:22:47;;;;;;;;;;;16.70;95.90;;;;;;5096423;28;20375;-70
2023/10/26 01:25:14;;;;;;;;;;;16.50;96.00;;;;;;5094071;28;19919;-70
2023/10/26 01:27:41;;;;;;;;;;;16.40;96.40;;;;;;5113321;28;20989;-72
2023/10/26 01:30:08;;;;;;;;;;;16.40;96.90;;;;;;5102853;28;19939;-69
2023/10/26 01:32:35;;;;;;;;;;;16.20;97.00;;;;;;5105000;28;20351;-72
2023/10/26 01:35:02;;;;;;;;;;;16.20;96.70;;;;;;5115563;28;20287;-72
2023/10/26 01:37:28;;;;;;;;;;;16.10;96.50;;;;;;5115977;28;19908;-71
2023/10/26 01:39:55;;;;;;;;;;;16.10;97.10;;;;;;5115386;28;19908;-70
2023/10/26 01:42:21;;;;;;;;;;;16.20;96.80;;;;;;5116312;28;19911;-71
2023/10/26 01:44:48;;;;;;;;;;;16.20;96.90;;;;;;5116423;28;20352;-70
2023/10/26 01:47:17;;;;;;;;;;;16.20;96.60;;;;;;5116086;28;19916;-71
2023/10/26 01:49:44;;;;;;;;;;;16.20;97.10;;;;;;5116134;28;19973;-69
2023/10/26 01:52:11;;;;;;;;;;;16.20;97.40;;;;;;5115644;28;19961;-70
2023/10/26 01:54:37;;;;;;;;;;;16.30;98.00;;;;;;5115681;28;19908;-70
2023/10/26 01:57:04;;;;;;;;;;;16.40;96.80;;;;;;5115893;28;19908;-73
2023/10/26 01:59:31;;;;;;;;;;;16.70;98.80;;;;;;5116182;28;19954;-71
2023/10/26 02:01:57;;;;;;;;;;;16.90;96.60;;;;;;5116031;28;19929;-73
2023/10/26 02:04:24;;;;;;;;;;;17.00;97.90;;;;;;5115715;28;19908;-74
2023/10/26 02:06:51;;;;;;;;;;;17.20;98.30;;;;;;5115696;28;20275;-73
2023/10/26 02:09:17;;;;;;;;;;;17.30;98.60;;;;;;5115857;28;19913;-70
2023/10/26 02:11:44;;;;;;;;;;;17.30;97.80;;;;;;5108773;28;19916;-70
2023/10/26 02:14:10;;;;;;;;;;;17.50;98.60;;;;;;5115209;28;19912;-71
2023/10/26 02:16:37;;;;;;;;;;;17.30;97.40;;;;;;5104507;28;19919;-72
2023/10/26 02:19:04;;;;;;;;;;;17.50;97.90;;;;;;5095200;28;20383;-70
2023/10/26 02:21:31;;;;;;;;;;;17.70;97.40;;;;;;5099109;28;19912;-72
2023/10/26 02:23:58;;;;;;;;;;;18.00;97.70;;;;;;5103006;28;19959;-71
2023/10/26 02:26:24;;;;;;;;;;;18.20;95.70;;;;;;5113986;28;19908;-73
2023/10/26 02:28:51;;;;;;;;;;;18.20;94.70;;;;;;5114756;28;19966;-72
2023/10/26 02:31:18;;;;;;;;;;;18.20;95.40;;;;;;5113787;28;19935;-72
2023/10/26 02:33:44;;;;;;;;;;;18.10;94.50;;;;;;5113350;28;20011;-73
2023/10/26 02:36:11;;;;;;;;;;;17.90;94.20;;;;;;5113759;28;20368;-70
2023/10/26 02:38:37;;;;;;;;;;;17.90;94.40;;;;;;5112290;28;19908;-70
2023/10/26 02:41:05;;;;;;;;;;;17.80;93.90;;;;;;5088196;28;19908;-72
2023/10/26 02:43:32;;;;;;;;;;;17.90;94.10;;;;;;5113159;28;19907;-72
2023/10/26 02:46:06;;;;;;;;;;;18.10;93.50;;;;;;5088396;28;19916;-71
2023/10/26 02:48:33;;;;;;;;;;;18.30;93.80;;;;;;5109933;28;19919;-74
2023/10/26 02:51:00;;;;;;;;;;;18.30;93.40;;;;;;5114247;28;19908;-72
2023/10/26 02:53:27;;;;;;;;;;;18.40;93.10;;;;;;5113481;28;19915;-71
2023/10/26 02:55:54;;;;;;;;;;;18.40;92.20;;;;;;5113502;28;19939;-68
2023/10/26 02:58:20;;;;;;;;;;;18.50;92.10;;;;;;5114313;28;19915;-71
2023/10/26 03:00:47;;;;;;;;;;;18.60;91.40;;;;;;5113698;28;20022;-71
2023/10/26 03:03:13;;;;;;;;;;;18.70;91.70;;;;;;5113189;28;19998;-73
2023/10/26 03:05:40;;;;;;;;;;;18.60;91.80;;;;;;5113673;28;19908;-69
2023/10/26 03:08:08;;;;;;;;;;;18.40;92.30;;;;;;5113074;28;20364;-70
2023/10/26 03:10:35;;;;;;;;;;;18.30;92.30;;;;;;5112316;28;20041;-75
2023/10/26 03:13:01;;;;;;;;;;;18.40;92.40;;;;;;5107901;28;19923;-71
2023/10/26 03:15:28;;;;;;;;;;;18.40;92.50;;;;;;5106893;28;19912;-70
2023/10/26 03:17:55;;;;;;;;;;;18.40;92.20;;;;;;5110815;28;19918;-70
2023/10/26 03:20:21;;;;;;;;;;;18.50;92.80;;;;;;5113295;28;19907;-70
2023/10/26 03:22:48;;;;;;;;;;;18.50;92.70;;;;;;5112742;28;20006;-70
2023/10/26 03:25:16;;;;;;;;;;;18.30;92.70;;;;;;5113119;28;19908;-71
2023/10/26 03:27:43;;;;;;;;;;;18.10;93.00;;;;;;5112416;28;20022;-71
2023/10/26 03:30:10;;;;;;;;;;;17.90;93.30;;;;;;5112828;28;20328;-73
2023/10/26 03:32:36;;;;;;;;;;;17.80;93.80;;;;;;5109832;28;19911;-75
2023/10/26 03:35:04;;;;;;;;;;;17.70;94.60;;;;;;5111839;28;19965;-73
2023/10/26 03:37:30;;;;;;;;;;;17.70;93.70;;;;;;5111554;28;19908;-69
2023/10/26 03:39:57;;;;;;;;;;;17.70;94.00;;;;;;5110022;28;19920;-74
2023/10/26 03:42:23;;;;;;;;;;;17.60;93.00;;;;;;5112263;28;19995;-71
2023/10/26 03:44:50;;;;;;;;;;;17.50;93.00;;;;;;5113224;28;19915;-73
2023/10/26 03:47:18;;;;;;;;;;;17.60;92.90;;;;;;5112023;28;19920;-71
2023/10/26 03:49:45;;;;;;;;;;;17.40;93.10;;;;;;5112570;28;19969;-75
2023/10/26 03:52:12;;;;;;;;;;;17.40;93.20;;;;;;5113543;28;20378;-74
2023/10/26 03:54:39;;;;;;;;;;;17.40;93.40;;;;;;5113012;28;20340;-70
2023/10/26 03:57:06;;;;;;;;;;;17.30;93.50;;;;;;5111695;28;19934;-71
2023/10/26 03:59:32;;;;;;;;;;;17.30;94.40;;;;;;5112451;28;19956;-71
2023/10/26 04:01:59;;;;;;;;;;;17.20;93.20;;;;;;5111997;28;19918;-77
2023/10/26 04:04:26;;;;;;;;;;;17.30;92.90;;;;;;5095185;28;20340;-75
2023/10/26 04:06:52;;;;;;;;;;;17.30;93.20;;;;;;5092301;28;19923;-73
2023/10/26 04:09:19;;;;;;;;;;;17.40;93.60;;;;;;5092618;28;19916;-70
2023/10/26 04:11:46;;;;;;;;;;;17.40;93.90;;;;;;5092510;28;19912;-69
2023/10/26 04:14:12;;;;;;;;;;;17.50;93.30;;;;;;5092306;28;19957;-70
2023/10/26 04:16:39;;;;;;;;;;;17.60;93.70;;;;;;5092669;28;19913;-71
2023/10/26 04:19:06;;;;;;;;;;;17.60;93.40;;;;;;5093089;28;19919;-69
2023/10/26 04:21:33;;;;;;;;;;;17.80;93.20;;;;;;5105129;28;19907;-72
2023/10/26 04:24:00;;;;;;;;;;;17.90;94.10;;;;;;5090158;28;19923;-77
2023/10/26 04:26:27;;;;;;;;;;;17.90;93.60;;;;;;5086018;28;19919;-75
2023/10/26 04:28:53;;;;;;;;;;;17.80;93.40;;;;;;5104292;28;19924;-77
2023/10/26 04:31:21;;;;;;;;;;;17.80;93.60;;;;;;5112016;28;19919;-72
2023/10/26 04:33:48;;;;;;;;;;;17.80;93.60;;;;;;5101024;28;19912;-73
2023/10/26 04:36:15;;;;;;;;;;;17.90;93.50;;;;;;5100092;28;19907;-73
2023/10/26 04:38:41;;;;;;;;;;;18.00;93.50;;;;;;5107316;28;20285;-72
2023/10/26 04:41:08;;;;;;;;;;;18.00;93.10;;;;;;5103253;28;19912;-70
2023/10/26 04:43:35;;;;;;;;;;;18.00;92.50;;;;;;5097727;28;19935;-68
2023/10/26 04:46:01;;;;;;;;;;;18.10;92.60;;;;;;5122580;28;19967;-73
2023/10/26 04:48:29;;;;;;;;;;;18.20;92.40;;;;;;5132267;28;20025;-76
2023/10/26 04:50:56;;;;;;;;;;;18.30;92.40;;;;;;5115616;28;20069;-78
2023/10/26 04:53:22;;;;;;;;;;;18.50;92.00;;;;;;5112126;28;19919;-75
2023/10/26 04:55:49;;;;;;;;;;;18.60;91.60;;;;;;5112358;28;19908;-71
2023/10/26 04:58:16;;;;;;;;;;;18.70;92.20;;;;;;5112137;28;19919;-77
2023/10/26 05:00:42;;;;;;;;;;;18.70;91.50;;;;;;5112118;28;19964;-75
2023/10/26 05:03:09;;;;;;;;;;;18.70;91.30;;;;;;5114482;28;19908;-79
2023/10/26 05:05:36;;;;;;;;;;;18.70;90.70;;;;;;5116427;28;19912;-73
2023/10/26 05:08:03;;;;;;;;;;;18.60;91.30;;;;;;5115370;28;19924;-78
2023/10/26 05:10:30;;;;;;;;;;;18.80;91.60;;;;;;5113193;28;20392;-80
2023/10/26 05:12:57;;;;;;;;;;;18.70;91.10;;;;;;5111095;28;19912;-76
2023/10/26 05:15:24;;;;;;;;;;;18.70;91.20;;;;;;5115913;28;19961;-72
2023/10/26 05:17:50;;;;;;;;;;;18.40;91.50;;;;;;5112367;28;19912;-73
2023/10/26 05:20:17;;;;;;;;;;;18.10;91.90;;;;;;5114022;28;19934;-77
2023/10/26 05:22:44;;;;;;;;;;;17.90;92.50;;;;;;5114830;27;19912;-77
2023/10/26 05:25:12;;;;;;;;;;;17.80;92.50;;;;;;5114576;28;20380;-80
2023/10/26 05:27:39;;;;;;;;;;;17.80;93.10;;;;;;5114838;27;19919;-80
2023/10/26 05:30:06;;;;;;;;;;;17.60;93.10;;;;;;5113023;28;19954;-78
2023/10/26 05:32:32;;;;;;;;;;;17.60;93.00;;;;;;5113515;28;19922;-78
2023/10/26 05:35:00;;;;;;;;;;;17.50;93.00;;;;;;5115236;28;19951;-76
2023/10/26 05:37:27;;;;;;;;;;;17.40;93.10;;;;;;5114523;28;20364;-70
2023/10/26 05:39:53;;;;;;;;;;;17.30;93.50;;;;;;5114028;28;19961;-73
2023/10/26 05:42:20;;;;;;;;;;;17.30;94.10;;;;;;5113496;27;19925;-68
2023/10/26 05:44:47;;;;;;;;;;;17.20;94.30;;;;;;5112471;28;20322;-70
2023/10/26 05:47:15;;;;;;;;;;;17.10;94.20;;;;;;5112575;27;20328;-70
2023/10/26 05:49:42;;;;;;;;;;;17.00;94.40;;;;;;5111814;28;20402;-72
2023/10/26 05:52:09;;;;;;;;;;;17.00;94.30;;;;;;5113849;27;19912;-78
2023/10/26 05:54:35;;;;;;;;;;;16.80;93.90;;;;;;5109138;28;19908;-81
2023/10/26 05:57:02;;;;;;;;;;;16.90;93.70;;;;;;5110683;28;19919;-72
2023/10/26 05:59:29;;;;;;;;;;;16.80;93.40;;;;;;5111924;28;20376;-76
2023/10/26 06:01:55;;;;;;;;;;;16.70;93.30;;;;;;5112741;28;20380;-71
2023/10/26 06:04:22;;;;;;;;;;;16.80;93.30;;;;;;5112015;28;20332;-72
2023/10/26 06:06:49;;;;;;;;;;;16.70;93.20;;;;;;5111945;28;19912;-73
2023/10/26 06:09:16;;;;;;;;;;;16.80;93.00;;;;;;5113801;28;19916;-73
2023/10/26 06:11:42;;;;;;;;;;;16.80;92.80;;;;;;5112929;27;20376;-74
2023/10/26 06:14:09;;;;;;;;;;;16.80;92.80;;;;;;5107676;28;20010;-72
2023/10/26 06:16:36;;;;;;;;;;;16.80;93.20;;;;;;5112871;28;19912;-71
2023/10/26 06:19:04;;;;;;;;;;;16.90;93.20;;;;;;5114222;28;20006;-72
2023/10/26 06:21:32;;;;;;;;;;;16.80;93.30;;;;;;5110930;28;20284;-75
2023/10/26 06:24:01;;;;;;;;;;;16.80;93.20;;;;;;5111351;27;19912;-73
2023/10/26 06:26:28;;;;;;;;;;;16.80;93.50;;;;;;5108965;28;19949;-73
2023/10/26 06:28:55;;;;;;;;;;;16.80;93.30;;;;;;5109497;27;19927;-75
2023/10/26 06:31:22;;;;;;;;;;;16.80;93.70;;;;;;5112435;28;19912;-77
2023/10/26 06:33:48;;;;;;;;;;;16.80;93.60;;;;;;5111628;27;19999;-72
2023/10/26 06:36:15;;;;;;;;;;;16.90;94.50;;;;;;5090430;28;19934;-71
2023/10/26 06:38:42;;;;;;;;;;;16.80;94.20;;;;;;5111926;27;19916;-73
2023/10/26 06:41:09;;;;;;;;;;;16.80;94.60;;;;;;5110198;28;19911;-72
2023/10/26 06:43:36;;;;;;;;;;;16.70;95.40;;;;;;5111199;28;19965;-74
2023/10/26 06:46:03;;;;;;;;;;;16.60;96.20;;;;;;5111895;28;19951;-75
2023/10/26 06:48:30;;;;;;;;;;;16.60;96.50;;;;;;5110663;27;19923;-73
2023/10/26 06:50:58;;;;;;;;;;;16.50;96.80;;;;;;5110457;28;19911;-77
2023/10/26 06:53:25;;;;;;;;;;;16.40;97.90;;;;;;5105864;28;19951;-76
2023/10/26 06:55:52;;;;;;;;;;;16.40;99.20;;;;;;5110391;28;19911;-74
2023/10/26 06:58:18;;;;;;;;;;;16.30;99.80;;;;;;5113744;28;19912;-80
2023/10/26 07:00:45;;;;;;;;;;;16.20;99.90;;;;;;5111221;28;19911;-75
2023/10/26 07:03:12;;;;;;;;;;;16.10;99.90;;;;;;5103992;27;19916;-70
2023/10/26 07:05:40;;;;;;;;;;;16.00;99.90;;;;;;5108736;28;19980;-73
2023/10/26 07:08:06;;;;;;;;;;;15.90;99.90;;;;;;5090715;28;19972;-73
2023/10/26 07:10:33;;;;;;;;;;;15.80;99.90;;;;;;5093790;28;20249;-77
2023/10/26 07:13:00;;;;;;;;;;;15.80;99.90;;;;;;5109680;28;19973;-79
2023/10/26 07:15:26;;;;;;;;;;;15.70;99.90;;;;;;5110556;28;19965;-74
2023/10/26 07:17:53;;;;;;;;;;;15.70;99.90;;;;;;5107265;27;19947;-74
2023/10/26 07:20:20;;;;;;;;;;;15.70;99.90;;;;;;5093314;28;19908;-79
2023/10/26 07:22:48;;;;;;;;;;;15.70;99.90;;;;;;5099926;28;20007;-80
2023/10/26 07:25:15;;;;;;;;;;;15.80;99.90;;;;;;5112580;28;19908;-77
2023/10/26 07:27:42;;;;;;;;;;;15.80;99.90;;;;;;5105104;27;19920;-78
2023/10/26 07:30:12;;;;;;;;;;;15.80;99.90;;;;;;5093864;28;19908;-70
2023/10/26 07:32:38;;;;;;;;;;;15.70;99.90;;;;;;5097818;28;20002;-76
2023/10/26 07:35:05;;;;;;;;;;;15.70;99.90;;;;;;5110748;28;19912;-73
2023/10/26 07:37:32;;;;;;;;;;;15.70;99.90;;;;;;5096172;28;19912;-73
2023/10/26 07:39:58;;;;;;;;;;;15.70;99.90;;;;;;5112944;28;19951;-75
2023/10/26 07:42:25;;;;;;;;;;;15.60;99.90;;;;;;5110751;28;19946;-72
2023/10/26 07:44:53;;;;;;;;;;;15.40;99.90;;;;;;5094409;28;19912;-72
2023/10/26 07:47:20;;;;;;;;;;;15.30;99.90;;;;;;5094344;27;20426;-73
2023/10/26 07:49:47;;;;;;;;;;;15.20;99.90;;;;;;5112111;28;19994;-74
2023/10/26 07:52:14;;;;;;;;;;;15.10;99.90;;;;;;5112646;28;20268;-71
2023/10/26 07:54:42;;;;;;;;;;;14.90;99.90;;;;;;5112652;28;20288;-69
2023/10/26 07:57:08;;;;;;;;;;;14.90;99.90;;;;;;5092079;28;19981;-71
2023/10/26 07:59:35;;;;;;;;;;;14.70;99.90;;;;;;5087191;28;19912;-72
2023/10/26 08:02:02;;;;;;;;;;;14.70;99.90;;;;;;5092045;28;19908;-74
2023/10/26 08:04:32;;;;;;;;;;;14.60;99.90;;;;;;5109322;28;19915;-74
2023/10/26 08:06:59;;;;;;;;;;;14.60;99.90;;;;;;5096347;28;20261;-76
2023/10/26 08:09:31;;;;;;;;;;;14.40;99.90;;;;;;5109478;28;19912;-76
2023/10/26 08:11:58;;;;;;;;;;;14.40;99.90;;;;;;5091846;28;20360;-70
2023/10/26 08:14:25;;;;;;;;;;;14.30;99.90;;;;;;5108274;28;19915;-72
2023/10/26 08:16:52;;;;;;;;;;;14.20;99.90;;;;;;5094710;28;19912;-72
2023/10/26 08:19:18;;;;;;;;;;;14.20;99.90;;;;;;5107327;28;19912;-69
2023/10/26 08:21:45;;;;;;;;;;;14.20;99.90;;;;;;5111691;28;19907;-73
2023/10/26 08:24:12;;;;;;;;;;;14.20;99.90;;;;;;5106245;28;19985;-77
2023/10/26 08:26:39;;;;;;;;;;;14.20;99.90;;;;;;5095039;28;19981;-75
2023/10/26 08:29:05;;;;;;;;;;;14.40;99.90;;;;;;5106974;28;19920;-76
2023/10/26 08:31:36;;;;;;;;;;;14.40;99.90;;;;;;5111521;28;20008;-76
2023/10/26 08:34:02;;;;;;;;;;;14.30;99.90;;;;;;5108422;28;19922;-77
2023/10/26 08:36:29;;;;;;;;;;;14.30;99.90;;;;;;5110307;28;19915;-73
2023/10/26 08:38:55;;;;;;;;;;;14.30;99.90;;;;;;5112087;28;19907;-77
2023/10/26 08:41:22;;;;;;;;;;;14.40;99.90;;;;;;5113805;28;19912;-71
2023/10/26 08:43:49;;;;;;;;;;;14.30;99.90;;;;;;5112902;28;19916;-73
2023/10/26 08:46:17;;;;;;;;;;;14.30;99.90;;;;;;5114079;28;20040;-77
2023/10/26 08:48:46;;;;;;;;;;;14.50;99.90;;;;;;4980784;28;3758519;-79
2023/10/26 08:51:13;;;;;;;;;;;14.50;99.90;;;;;;5116440;28;19916;-76
2023/10/26 08:53:40;;;;;;;;;;;14.40;99.90;;;;;;5112039;28;19916;-78
2023/10/26 08:56:09;;;;;;;;;;;14.60;99.90;;;;;;5093647;28;20294;-78
2023/10/26 08:58:36;;;;;;;;;;;14.70;99.90;;;;;;5111684;28;19908;-72
2023/10/26 09:01:04;;;;;;;;;;;14.80;99.90;;;;;;5111514;28;19940;-81
2023/10/26 09:03:33;;;;;;;;;;;14.90;99.90;;;;;;5103509;28;19908;-72
2023/10/26 09:05:59;;;;;;;;;;;14.90;99.90;;;;;;5104843;28;19926;-77
2023/10/26 09:08:30;;;;;;;;;;;14.90;99.90;;;;;;5098289;28;20068;-80
2023/10/26 09:10:57;;;;;;;;;;;15.00;99.90;;;;;;5097136;28;19912;-81
2023/10/26 09:13:25;;;;;;;;;;;15.00;99.90;;;;;;5096045;28;19919;-78
2023/10/26 09:15:53;;;;;;;;;;;15.10;99.90;;;;;;5109921;28;19961;-77
2023/10/26 09:18:23;;;;;;;;;;;15.20;99.90;;;;;;5112272;28;19952;-80
2023/10/26 09:21:10;;;;;;;;;;;15.20;99.90;;;;;;5094365;28;19909;-81
2023/10/26 09:23:39;;;;;;;;;;;15.20;99.90;;;;;;5102572;28;19912;-76
2023/10/26 09:26:10;;;;;;;;;;;15.20;99.90;;;;;;5122403;28;20291;-79
2023/10/26 09:28:48;;;;;;;;;;;15.20;99.90;;;;;;5101978;28;19916;-78
2023/10/26 09:31:15;;;;;;;;;;;15.30;99.90;;;;;;5101121;28;19912;-77
2023/10/26 09:33:42;;;;;;;;;;;15.30;99.90;;;;;;5099339;28;20297;-73
2023/10/26 09:36:13;;;;;;;;;;;15.40;99.90;;;;;;5111520;28;20333;-72
2023/10/26 09:38:40;;;;;;;;;;;15.40;99.90;;;;;;5104875;28;20276;-75
2023/10/26 09:41:08;;;;;;;;;;;15.50;99.90;;;;;;5100453;28;19912;-77
2023/10/26 09:43:35;;;;;;;;;;;15.40;99.90;;;;;;5103299;28;19914;-74
2023/10/26 09:46:02;;;;;;;;;;;15.40;99.90;;;;;;5106893;28;19912;-75
2023/10/26 09:48:29;;;;;;;;;;;15.50;99.90;;;;;;5094363;27;19965;-75
2023/10/26 09:51:00;;;;;;;;;;;15.50;99.90;;;;;;5115293;28;19919;-75
2023/10/26 09:53:31;;;;;;;;;;;15.50;99.90;;;;;;5109464;27;19922;-75
2023/10/26 09:55:59;;;;;;;;;;;15.50;99.90;;;;;;5109524;28;19916;-73
2023/10/26 09:58:27;;;;;;;;;;;15.50;99.90;;;;;;5107436;27;19908;-75
2023/10/26 10:00:54;;;;;;;;;;;15.40;99.90;;;;;;5132820;27;20002;-75
2023/10/26 10:03:20;;;;;;;;;;;15.40;99.90;;;;;;5100273;27;19912;-72
2023/10/26 10:05:47;;;;;;;;;;;15.30;99.90;;;;;;5108538;28;20395;-73
2023/10/26 10:08:19;;;;;;;;;;;15.30;99.90;;;;;;5107519;28;19915;-70
2023/10/26 10:11:04;;;;;;;;;;;15.40;99.90;;;;;;5094304;28;20409;-69
2023/10/26 10:13:37;;;;;;;;;;;15.30;99.90;;;;;;5097906;27;19934;-72
2023/10/26 10:16:04;;;;;;;;;;;15.40;99.90;;;;;;5118665;27;20356;-73
2023/10/26 10:18:31;;;;;;;;;;;15.30;99.90;;;;;;5103312;27;20554;-73
2023/10/26 10:20:57;;;;;;;;;;;15.40;99.90;;;;;;5113965;28;19991;-71
2023/10/26 10:23:30;;;;;;;;;;;15.40;99.90;;;;;;5100175;28;20277;-73
2023/10/26 10:25:58;;;;;;;;;;;15.40;99.90;;;;;;5109356;28;20360;-75
2023/10/26 10:28:39;;;;;;;;;;;15.30;99.90;;;;;;5114518;28;20344;-74
2023/10/26 10:31:06;;;;;;;;;;;15.40;99.90;;;;;;5114545;28;20007;-73
2023/10/26 10:33:32;;;;;;;;;;;15.40;99.90;;;;;;5108789;28;20420;-71
2023/10/26 10:36:03;;;;;;;;;;;15.50;99.90;;;;;;5112945;28;19916;-71
2023/10/26 10:38:30;;;;;;;;;;;15.40;99.90;;;;;;5099257;27;19916;-72
2023/10/26 10:40:57;;;;;;;;;;;15.40;99.90;;;;;;5114269;28;19962;-74
2023/10/26 10:43:31;;;;;;;;;;;15.40;99.90;;;;;;5106012;28;19919;-72
2023/10/26 10:46:08;;;;;;;;;;;15.50;99.90;;;;;;5095221;28;19914;-73
2023/10/26 10:48:36;;;;;;;;;;;15.60;99.90;;;;;;5098940;28;20003;-72
2023/10/26 10:51:02;;;;;;;;;;;15.60;99.90;;;;;;5110465;28;19916;-73
2023/10/26 10:53:31;;;;;;;;;;;15.70;99.90;;;;;;5097920;27;19916;-72
2023/10/26 10:55:58;;;;;;;;;;;15.60;99.90;;;;;;5095754;28;19927;-74
2023/10/26 10:58:35;;;;;;;;;;;15.70;99.90;;;;;;5097446;27;19911;-72
2023/10/26 11:01:02;;;;;;;;;;;15.60;99.90;;;;;;5113077;28;20352;-72
2023/10/26 11:03:28;;;;;;;;;;;15.70;99.90;;;;;;5107964;27;20006;-72
2023/10/26 11:05:55;;;;;;;;;;;15.70;99.90;;;;;;5113563;28;20295;-72
2023/10/26 11:08:22;;;;;;;;;;;15.70;99.90;;;;;;5096326;28;19920;-70
2023/10/26 11:10:49;;;;;;;;;;;15.70;99.90;;;;;;5093886;28;19916;-71
2023/10/26 11:13:19;;;;;;;;;;;15.60;99.90;;;;;;5093931;28;19978;-73
2023/10/26 11:15:46;;;;;;;;;;;15.60;99.90;;;;;;5095570;28;19958;-70
2023/10/26 11:18:12;;;;;;;;;;;15.60;99.90;;;;;;5106469;28;19919;-70
2023/10/26 11:20:40;;;;;;;;;;;15.60;99.90;;;;;;5113643;28;20010;-75
2023/10/26 11:23:07;;;;;;;;;;;15.60;99.90;;;;;;5113467;28;19911;-70
2023/10/26 11:25:34;;;;;;;;;;;15.50;99.90;;;;;;5117220;27;19947;-74
2023/10/26 11:28:01;;;;;;;;;;;15.50;99.90;;;;;;5097623;28;19926;-75
2023/10/26 11:30:28;;;;;;;;;;;15.60;99.90;;;;;;5113178;28;19912;-76
2023/10/26 11:32:55;;;;;;;;;;;15.60;99.90;;;;;;5113789;28;19960;-74
2023/10/26 11:35:23;;;;;;;;;;;15.60;99.80;;;;;;5106084;28;19912;-75
2023/10/26 11:37:53;;;;;;;;;;;15.60;99.90;;;;;;5093397;28;19912;-75
2023/10/26 11:40:28;;;;;;;;;;;15.60;99.90;;;;;;5093517;28;19914;-77
2023/10/26 11:42:59;;;;;;;;;;;15.60;99.90;;;;;;5093548;28;19912;-75
2023/10/26 11:45:26;;;;;;;;;;;15.60;99.60;;;;;;5092445;28;20269;-75
2023/10/26 11:47:53;;;;;;;;;;;15.60;98.90;;;;;;5099196;28;19920;-74
2023/10/26 11:50:24;;;;;;;;;;;15.50;98.80;;;;;;5108862;28;19912;-73
2023/10/26 11:52:52;;;;;;;;;;;15.60;98.70;;;;;;5112258;28;20322;-74
2023/10/26 11:55:19;;;;;;;;;;;15.60;98.90;;;;;;5110332;28;19943;-75
2023/10/26 11:57:46;;;;;;;;;;;15.60;99.10;;;;;;5112067;28;19908;-75
2023/10/26 12:00:13;;;;;;;;;;;15.60;99.80;;;;;;5111741;28;20006;-75
2023/10/26 12:02:40;;;;;;;;;;;15.70;99.90;;;;;;5112119;28;20593;-74
2023/10/26 12:05:07;;;;;;;;;;;15.60;99.90;;;;;;5111549;28;19996;-74
2023/10/26 12:07:34;;;;;;;;;;;15.60;99.90;;;;;;5093880;28;20002;-74
2023/10/26 12:10:02;;;;;;;;;;;15.60;99.90;;;;;;5111693;28;19915;-74
2023/10/26 12:12:28;;;;;;;;;;;15.50;99.90;;;;;;5108414;28;19916;-74
2023/10/26 12:14:55;;;;;;;;;;;15.40;99.90;;;;;;5111748;28;19981;-74
2023/10/26 12:17:22;;;;;;;;;;;15.40;99.90;;;;;;5112350;28;20356;-74
2023/10/26 12:19:48;;;;;;;;;;;15.30;99.90;;;;;;5109270;28;19918;-75
2023/10/26 12:22:15;;;;;;;;;;;15.30;99.90;;;;;;5111882;28;19912;-75
2023/10/26 12:24:41;;;;;;;;;;;15.30;99.90;;;;;;5109107;28;19912;-73
2023/10/26 12:27:08;;;;;;;;;;;15.30;99.90;;;;;;5108935;28;19911;-74
2023/10/26 12:29:35;;;;;;;;;;;15.30;99.90;;;;;;5111632;28;19915;-73
2023/10/26 12:32:01;;;;;;;;;;;15.40;99.90;;;;;;5110925;28;19951;-74
2023/10/26 12:34:28;;;;;;;;;;;15.40;99.90;;;;;;5106345;28;20003;-75
2023/10/26 12:36:55;;;;;;;;;;;15.40;99.60;;;;;;5110296;28;19911;-74
2023/10/26 12:39:21;;;;;;;;;;;15.40;99.50;;;;;;5111618;28;19918;-73
2023/10/26 12:41:48;;;;;;;;;;;15.40;99.90;;;;;;5108840;28;19912;-73
2023/10/26 12:44:16;;;;;;;;;;;15.50;99.90;;;;;;5109558;28;19912;-74
2023/10/26 12:46:42;;;;;;;;;;;15.60;99.90;;;;;;5111291;28;19916;-75
2023/10/26 12:49:09;;;;;;;;;;;15.60;99.90;;;;;;5106303;28;19924;-74
2023/10/26 12:51:35;;;;;;;;;;;15.60;99.90;;;;;;5093041;28;19923;-74
2023/10/26 12:54:02;;;;;;;;;;;15.60;99.90;;;;;;5111455;28;20747;-76
2023/10/26 12:56:29;;;;;;;;;;;15.50;99.90;;;;;;5108996;28;19958;-73
2023/10/26 12:58:55;;;;;;;;;;;15.50;99.90;;;;;;5108337;28;19915;-74
2023/10/26 13:01:22;;;;;;;;;;;15.50;99.90;;;;;;5092949;28;19912;-74
2023/10/26 13:03:49;;;;;;;;;;;15.60;99.90;;;;;;5107776;28;20024;-73
2023/10/26 13:06:15;;;;;;;;;;;15.60;99.90;;;;;;5110288;28;19911;-74
2023/10/26 13:08:42;;;;;;;;;;;15.50;99.90;;;;;;5108693;28;19920;-74
2023/10/26 13:11:09;;;;;;;;;;;15.50;99.90;;;;;;5108400;28;19912;-75
2023/10/26 13:13:36;;;;;;;;;;;15.40;99.90;;;;;;5109248;28;19916;-73
2023/10/26 13:16:02;;;;;;;;;;;15.40;99.90;;;;;;5111088;28;20026;-73
2023/10/26 13:18:29;;;;;;;;;;;15.30;99.90;;;;;;5104652;28;19919;-74
2023/10/26 13:20:55;;;;;;;;;;;15.30;99.90;;;;;;5108721;28;19916;-73
2023/10/26 13:23:22;;;;;;;;;;;15.40;99.40;;;;;;5112897;28;19908;-73
2023/10/26 13:25:49;;;;;;;;;;;15.40;98.60;;;;;;5116336;28;19908;-72
2023/10/26 13:28:15;;;;;;;;;;;15.40;97.90;;;;;;5104087;28;20010;-74
2023/10/26 13:30:42;;;;;;;;;;;15.40;97.20;;;;;;5095941;28;19908;-76
2023/10/26 13:33:08;;;;;;;;;;;15.50;96.60;;;;;;5095787;28;20463;-73
2023/10/26 13:35:35;;;;;;;;;;;15.50;96.20;;;;;;5095615;28;19914;-74
2023/10/26 13:38:02;;;;;;;;;;;15.60;95.50;;;;;;5103981;28;20350;-74
2023/10/26 13:40:28;;;;;;;;;;;15.60;95.30;;;;;;5094984;28;19904;-74
2023/10/26 13:42:55;;;;;;;;;;;15.60;94.70;;;;;;5095130;28;19915;-73
2023/10/26 13:45:22;;;;;;;;;;;15.70;94.50;;;;;;5095245;28;19909;-75
2023/10/26 13:47:48;;;;;;;;;;;15.70;94.50;;;;;;5097547;28;20269;-74
2023/10/26 13:50:15;;;;;;;;;;;15.70;94.60;;;;;;5101254;28;19968;-73
2023/10/26 13:52:41;;;;;;;;;;;15.70;95.20;;;;;;5111661;28;20010;-73
2023/10/26 13:55:08;;;;;;;;;;;15.80;96.00;;;;;;5116009;28;19907;-74
2023/10/26 13:57:35;;;;;;;;;;;15.80;96.30;;;;;;5113926;28;20287;-75
2023/10/26 14:00:06;;;;;;;;;;;15.70;96.00;;;;;;5114279;28;20295;-74
2023/10/26 14:02:33;;;;;;;;;;;15.70;96.00;;;;;;5114458;28;20330;-74
2023/10/26 14:04:59;;;;;;;;;;;15.60;96.10;;;;;;5114660;28;19919;-74
2023/10/26 14:07:26;;;;;;;;;;;15.60;96.10;;;;;;5105832;28;19915;-74
2023/10/26 14:09:53;;;;;;;;;;;15.70;95.30;;;;;;5115225;28;19958;-73
2023/10/26 14:12:19;;;;;;;;;;;15.60;95.10;;;;;;5114842;28;19911;-73
2023/10/26 14:14:46;;;;;;;;;;;15.60;95.80;;;;;;5114954;28;19923;-77
2023/10/26 14:17:13;;;;;;;;;;;15.60;95.90;;;;;;5113325;28;20398;-74